Time;durP1;ratioP1;P1;durP2;ratioP2;P2;SDS_P1;SDS_P2;PMS_P1;PMS_P2;Temp;Humidity;BMP_temperature;BMP_pressure;BME280_temperature;BME280_humidity;BME280_pressure;Samples;Min_cycle;Max_cycle;Signal;HPM_P1;HPM_P2
2021/03/31 08:09:41;;;;;;;39.18;21.75;;;;;;;8.82;50.25;101364.70;1706035;83;21189;-47
2021/03/31 08:12:09;;;;;;;33.05;20.20;;;;;;;9.01;48.68;101364.27;1720173;83;21152;-40
2021/03/31 08:14:42;;;;;;;32.78;19.65;;;;;;;9.01;48.35;101352.53;1683487;84;21153;-40
2021/03/31 08:17:13;;;;;;;31.27;20.60;;;;;;;9.05;48.47;101353.95;1691083;83;21194;-39
2021/03/31 08:19:44;;;;;;;32.55;19.87;;;;;;;9.16;48.40;101351.58;1688855;84;21615;-39
2021/03/31 08:22:23;;;;;;;30.50;19.07;;;;;;;9.34;47.87;101345.87;1683284;83;21182;-48
2021/03/31 08:24:57;;;;;;;29.57;18.23;;;;;;;9.54;47.71;101347.59;1686202;83;21136;-48
2021/03/31 08:27:27;;;;;;;27.70;16.48;;;;;;;9.74;47.00;101344.06;1690723;83;21201;-47
2021/03/31 08:29:57;;;;;;;25.08;15.93;;;;;;;9.86;45.41;101330.84;1691264;83;21165;-47
2021/03/31 08:32:26;;;;;;;26.55;16.87;;;;;;;9.93;45.14;101334.45;1688331;83;21196;-47
2021/03/31 08:34:56;;;;;;;24.52;17.67;;;;;;;10.06;45.45;101330.33;1680117;83;21175;-48
2021/03/31 08:37:28;;;;;;;30.50;18.50;;;;;;;10.23;45.20;101328.02;1691591;83;21163;-48
2021/03/31 08:40:04;;;;;;;29.57;16.97;;;;;;;10.46;44.86;101317.55;1684570;83;21420;-48
2021/03/31 08:42:33;;;;;;;24.65;15.72;;;;;;;10.73;44.17;101309.70;1711904;83;21660;-48
2021/03/31 08:45:04;;;;;;;25.72;16.02;;;;;;;10.89;43.11;101305.13;1685883;84;21167;-48
2021/03/31 08:47:34;;;;;;;18.32;12.37;;;;;;;10.97;42.63;101298.71;1704395;82;21185;-48
2021/03/31 08:50:08;;;;;;;14.90;11.63;;;;;;;11.03;42.38;101296.17;1716155;82;21162;-48
2021/03/31 08:52:38;;;;;;;16.97;12.43;;;;;;;11.15;41.20;101296.34;1697124;83;21578;-48
2021/03/31 08:55:10;;;;;;;16.80;10.82;;;;;;;11.35;40.71;101285.67;1677618;84;21159;-40
2021/03/31 08:57:38;;;;;;;15.15;10.82;;;;;;;11.63;40.02;101280.34;1716690;83;21181;-39
2021/03/31 09:00:09;;;;;;;18.75;11.73;;;;;;;11.83;39.49;101277.07;1705879;83;21231;-40
2021/03/31 09:02:41;;;;;;;21.07;11.73;;;;;;;12.06;39.36;101277.30;1700787;83;21179;-40
2021/03/31 09:07:44;;;;;;;15.55;11.28;;;;;;;12.40;37.94;101268.86;1779610;78;28406;-39
2021/03/31 09:10:13;;;;;;;18.05;9.78;;;;;;;12.43;36.91;101266.71;1745790;79;21704;-40
2021/03/31 09:12:42;;;;;;;15.08;9.95;;;;;;;12.45;35.69;101270.22;1744534;81;21163;-47
2021/03/31 09:15:11;;;;;;;12.88;9.48;;;;;;;12.55;36.08;101270.73;1744985;81;21178;-47
2021/03/31 09:17:39;;;;;;;13.60;9.93;;;;;;;12.79;34.64;101259.52;1750636;81;21143;-47
2021/03/31 09:20:11;;;;;;;14.83;8.83;;;;;;;12.86;34.26;101261.73;1730197;81;22861;-47
2021/03/31 09:22:40;;;;;;;;;;;;;;;12.86;33.58;101252.55;1755926;81;21159;-40
2021/03/31 09:25:11;;;;;;;12.37;8.75;;;;;;;12.88;33.71;101256.08;1747886;81;20562;-47
2021/03/31 09:27:41;;;;;;;14.90;9.30;;;;;;;13.11;32.60;101242.63;1730363;81;21170;-41
2021/03/31 09:30:15;;;;;;;12.33;8.90;;;;;;;13.11;32.60;101242.63;1740840;81;21683;-47
2021/03/31 09:32:53;;;;;;;13.90;9.45;;;;;;;13.10;33.31;101239.53;1726853;81;21595;-41
2021/03/31 09:35:16;;;;;;;14.15;10.03;;;;;;;13.13;33.60;101240.87;1736806;81;21154;-47
2021/03/31 09:37:51;;;;;;;9.83;7.00;;;;;;;13.26;33.38;101244.47;1743692;81;21134;-40
2021/03/31 09:40:26;;;;;;;10.25;7.25;;;;;;;13.46;34.02;101240.17;1739627;81;21171;-47
2021/03/31 09:43:03;;;;;;;8.58;6.28;;;;;;;13.71;33.06;101234.53;1731641;81;21570;-47
2021/03/31 09:45:34;;;;;;;8.65;6.97;;;;;;;13.91;32.59;101229.28;1734958;81;21207;-40
2021/03/31 09:48:12;;;;;;;10.95;7.85;;;;;;;14.11;32.65;101226.69;1744995;81;21168;-40
2021/03/31 09:50:45;;;;;;;10.82;7.17;;;;;;;14.24;32.37;101216.59;1743550;81;21187;-40
2021/03/31 09:53:13;;;;;;;10.18;6.62;;;;;;;14.35;32.36;101214.83;1744815;81;21174;-47
2021/03/31 09:55:42;;;;;;;13.35;7.47;;;;;;;14.48;31.70;101209.58;1748258;81;21143;-47
2021/03/31 09:58:12;;;;;;;12.18;7.65;;;;;;;14.37;31.11;101203.84;1737077;81;21607;-47
2021/03/31 10:00:53;;;;;;;11.00;6.28;;;;;;;14.19;32.01;101198.60;1751653;79;22354;-46
2021/03/31 10:03:30;;;;;;;11.25;7.42;;;;;;;14.13;31.72;101202.55;1721773;82;21163;-40
2021/03/31 10:06:17;;;;;;;12.23;8.00;;;;;;;14.11;31.93;101201.69;1719957;82;21195;-40
2021/03/31 10:08:45;;;;;;;10.15;7.47;;;;;;;13.96;31.87;101205.18;1711635;82;21107;-47
2021/03/31 10:14:22;;;;;;;10.75;7.25;;;;;;;13.56;32.53;101200.30;1753112;79;23621;-40
2021/03/31 10:16:51;;;;;;;10.08;7.28;;;;;;;13.57;32.10;101200.33;1717134;82;21175;-40
2021/03/31 10:19:19;;;;;;;12.45;8.45;;;;;;;13.64;33.15;101195.95;1696946;82;21606;-41
2021/03/31 10:21:48;;;;;;;12.10;7.67;;;;;;;13.76;32.47;101191.16;1683148;84;21166;-39
2021/03/31 10:24:23;;;;;;;11.75;7.55;;;;;;;13.96;32.01;101188.08;1664022;85;21205;-46
2021/03/31 10:26:54;;;;;;;8.15;7.17;;;;;;;14.17;31.37;101181.95;1663463;85;22040;-40
2021/03/31 10:29:25;;;;;;;11.45;7.17;;;;;;;14.38;31.60;101179.74;1656946;85;21225;-40
2021/03/31 10:31:57;;;;;;;17.10;7.95;;;;;;;14.53;30.81;101174.46;1655702;85;21178;-40
2021/03/31 10:34:36;;;;;;;20.40;8.60;;;;;;;14.86;30.80;101169.54;1678587;84;21198;-40
2021/03/31 10:37:24;;;;;;;12.45;7.12;;;;;;;15.31;30.78;101168.90;1655477;86;21200;-48
2021/03/31 10:53:56;;;;;;;14.15;7.10;;;;;;;15.90;28.32;101144.34;1720199;83;21653;-47
